createdAt,value
2022-08-17T00:00:34.472Z,25.32
2022-08-17T00:05:48.024Z,26.26
2022-08-17T00:10:52.947Z,27.77
2022-08-17T00:15:59.941Z,26.62
2022-08-17T00:21:05.528Z,25.82
2022-08-17T00:26:14.249Z,25.30
2022-08-17T00:31:17.587Z,25.94
2022-08-17T00:36:21.538Z,28.20
2022-08-17T00:41:27.163Z,28.27
2022-08-17T00:46:34.949Z,26.92
2022-08-17T00:51:44.261Z,26.07
2022-08-17T00:56:54.081Z,25.47
2022-08-17T01:01:58.066Z,26.09
2022-08-17T01:07:03.281Z,28.30
2022-08-17T01:12:09.190Z,28.19
2022-08-17T01:17:12.442Z,26.77
2022-08-17T01:22:16.651Z,25.91
2022-08-17T01:27:21.492Z,25.29
2022-08-17T01:32:26.381Z,25.89
2022-08-17T01:37:37.858Z,28.12
2022-08-17T01:42:48.749Z,28.33
2022-08-17T01:47:53.016Z,26.81
2022-08-17T01:53:00.033Z,25.85
2022-08-17T01:58:03.167Z,25.21
2022-08-17T02:03:07.914Z,25.77
2022-08-17T02:08:19.863Z,27.98
2022-08-17T02:13:23.412Z,27.91
2022-08-17T02:18:27.391Z,26.50
2022-08-17T02:23:34.387Z,25.64
2022-08-17T02:28:37.207Z,25.05
2022-08-17T02:33:42.935Z,25.60
2022-08-17T02:38:46.491Z,27.74
2022-08-17T02:43:49.398Z,27.92
2022-08-17T02:48:52.701Z,26.46
2022-08-17T02:54:39.225Z,25.48
2022-08-17T02:59:19.155Z,24.76
2022-08-17T03:04:22.497Z,25.29
2022-08-17T03:09:25.375Z,27.47
2022-08-17T03:14:28.457Z,27.25
2022-08-17T03:19:31.359Z,25.88
2022-08-17T03:24:34.960Z,25.05
2022-08-17T03:29:39.897Z,24.45
2022-08-17T03:34:43.329Z,25.06
2022-08-17T03:39:46.228Z,27.29
2022-08-17T03:44:50.872Z,27.38
2022-08-17T03:50:12.690Z,25.99
2022-08-17T03:55:36.541Z,25.05
2022-08-17T04:00:45.542Z,24.40
2022-08-17T04:05:48.430Z,25.03
2022-08-17T04:10:51.297Z,27.19
2022-08-17T04:15:55.633Z,27.44
2022-08-17T04:20:58.851Z,25.93
2022-08-17T04:26:01.755Z,24.97
2022-08-17T04:31:04.846Z,24.31
2022-08-17T04:36:11.723Z,24.90
2022-08-17T04:41:33.995Z,27.11
2022-08-17T04:46:37.261Z,27.26
2022-08-17T04:51:51.613Z,25.75
2022-08-17T04:56:59.190Z,24.83
2022-08-17T05:02:02.196Z,24.27
2022-08-17T05:07:05.084Z,25.00
2022-08-17T05:12:08.168Z,27.34
2022-08-17T05:17:11.312Z,27.40
2022-08-17T05:22:14.844Z,26.05
2022-08-17T05:27:19.057Z,25.30
2022-08-17T05:32:38.184Z,24.84
2022-08-17T05:37:42.552Z,25.68
2022-08-17T05:42:45.388Z,27.80
2022-08-17T05:47:48.318Z,27.06
2022-08-17T05:53:10.538Z,25.96
2022-08-17T05:58:42.255Z,25.25
2022-08-17T06:04:03.274Z,26.03
2022-08-17T06:09:34.199Z,27.50
2022-08-17T06:15:01.517Z,26.25
2022-08-17T06:20:12.354Z,25.52
2022-08-17T06:25:33.592Z,25.11
2022-08-17T06:31:01.548Z,26.11
2022-08-17T06:36:40.604Z,27.74
2022-08-17T06:42:59.902Z,26.60
2022-08-17T06:47:55.993Z,25.90
2022-08-17T06:53:28.370Z,26.64
2022-08-17T06:58:33.439Z,28.14
2022-08-17T07:03:41.666Z,27.02
2022-08-17T07:08:57.678Z,26.36
2022-08-17T07:14:00.443Z,25.99
2022-08-17T07:19:06.154Z,26.82
2022-08-17T07:24:29.960Z,28.45
2022-08-17T07:29:40.018Z,27.38
2022-08-17T07:35:11.118Z,26.75
2022-08-17T07:40:18.135Z,26.41
2022-08-17T07:45:39.635Z,27.22
2022-08-17T07:50:42.602Z,28.83
2022-08-17T07:55:54.025Z,27.87
2022-08-17T08:01:11.288Z,27.34
2022-08-17T08:06:24.851Z,27.02
2022-08-17T08:11:39.262Z,26.80
2022-08-17T08:16:59.136Z,27.75
2022-08-17T08:22:10.325Z,29.38
2022-08-17T08:27:40.232Z,28.42
2022-08-17T08:33:11.083Z,27.82
2022-08-17T08:38:36.469Z,27.53
2022-08-17T08:44:06.153Z,27.32
2022-08-17T08:49:45.126Z,27.20
2022-08-17T08:55:16.977Z,27.17
2022-08-17T09:00:24.145Z,27.17
2022-08-17T09:05:48.760Z,27.16
2022-08-17T09:10:57.625Z,27.17
2022-08-17T09:16:09.670Z,27.21
2022-08-17T09:21:28.791Z,27.32
2022-08-17T09:27:03.659Z,27.37
2022-08-17T09:32:17.796Z,27.33
2022-08-17T09:37:32.601Z,27.41
2022-08-17T09:42:47.600Z,27.48
2022-08-17T09:47:58.176Z,27.56
2022-08-17T09:53:01.833Z,27.71
2022-08-17T09:58:23.565Z,27.78
2022-08-17T10:03:49.133Z,27.80
2022-08-17T10:08:52.157Z,27.88
2022-08-17T10:14:36.373Z,27.85
2022-08-17T10:19:54.044Z,27.73
2022-08-17T10:25:23.627Z,27.82
2022-08-17T10:30:33.324Z,28.05
2022-08-17T10:35:52.559Z,28.35
2022-08-17T10:40:59.971Z,28.51
2022-08-17T10:46:30.466Z,28.49
2022-08-17T10:51:42.127Z,28.49
2022-08-17T10:56:50.484Z,28.59
2022-08-17T11:02:04.694Z,28.78
2022-08-17T11:07:19.292Z,28.91
2022-08-17T11:12:48.951Z,28.85
2022-08-17T11:18:06.786Z,28.72
2022-08-17T11:23:50.460Z,28.59
2022-08-17T11:28:59.668Z,28.57
2022-08-17T11:34:18.597Z,28.80
2022-08-17T11:39:37.676Z,29.09
2022-08-17T11:44:52.563Z,29.39
2022-08-17T11:50:38.756Z,29.71
2022-08-17T11:55:44.832Z,30.03
2022-08-17T12:00:52.031Z,30.31
2022-08-17T12:06:30.215Z,30.58
2022-08-17T12:12:11.041Z,30.70
2022-08-17T12:17:20.894Z,30.75
2022-08-17T12:23:01.306Z,30.64
2022-08-17T12:28:20.170Z,30.80
2022-08-17T12:33:28.408Z,31.03
2022-08-17T12:38:34.901Z,31.28
2022-08-17T12:43:38.086Z,31.45
2022-08-17T12:48:59.924Z,31.28
2022-08-17T12:54:03.420Z,31.19
2022-08-17T12:59:07.249Z,31.30
2022-08-17T13:04:15.763Z,31.20
2022-08-17T13:09:35.908Z,31.23
2022-08-17T13:14:46.552Z,31.46
2022-08-17T13:19:51.216Z,31.62
2022-08-17T13:24:58.156Z,31.50
2022-08-17T13:30:12.458Z,31.20
2022-08-17T13:35:38.954Z,31.14
2022-08-17T13:40:50.297Z,30.97
2022-08-17T13:45:53.488Z,31.07
2022-08-17T13:50:56.340Z,31.19
2022-08-17T13:56:33.479Z,31.15
2022-08-17T14:01:53.197Z,31.10
2022-08-17T14:07:19.918Z,31.12
2022-08-17T14:12:25.177Z,31.09
2022-08-17T14:17:29.597Z,30.98
2022-08-17T14:22:35.706Z,30.87
2022-08-17T14:27:41.864Z,30.87
2022-08-17T14:32:58.253Z,30.91
2022-08-17T14:38:06.012Z,30.96
2022-08-17T14:43:08.964Z,30.98
2022-08-17T14:48:12.021Z,30.93
2022-08-17T14:53:16.554Z,30.72
2022-08-17T14:58:20.046Z,30.52
2022-08-17T15:03:23.596Z,30.32
2022-08-17T15:08:26.462Z,30.15
2022-08-17T15:13:29.942Z,30.01
2022-08-17T15:18:33.060Z,29.93
2022-08-17T15:23:36.395Z,29.84
2022-08-17T15:28:39.295Z,29.77
2022-08-17T15:33:42.218Z,29.70
2022-08-17T15:38:46.132Z,29.61
2022-08-17T15:43:52.660Z,29.55
2022-08-17T15:49:00.113Z,29.48
2022-08-17T15:54:18.671Z,29.33
2022-08-17T15:59:25.590Z,29.27
2022-08-17T16:04:30.952Z,29.21
2022-08-17T16:09:34.822Z,29.13
2022-08-17T16:14:37.715Z,28.99
2022-08-17T16:19:41.444Z,28.89
2022-08-17T16:24:56.868Z,28.79
2022-08-17T16:30:01.204Z,28.70
2022-08-17T16:35:08.277Z,28.63
2022-08-17T16:40:11.834Z,28.55
2022-08-17T16:45:23.995Z,28.49
2022-08-17T16:50:27.079Z,28.43
2022-08-17T16:55:30.229Z,28.36
2022-08-17T17:00:33.847Z,28.31
2022-08-17T17:06:07.426Z,28.27
2022-08-17T17:11:15.616Z,28.21
2022-08-17T17:16:47.117Z,28.13
2022-08-17T17:22:03.899Z,28.07
2022-08-17T17:27:37.161Z,28.01
2022-08-17T17:33:03.608Z,27.96
2022-08-17T17:38:12.785Z,27.91
2022-08-17T17:43:38.198Z,27.85
2022-08-17T17:48:42.204Z,27.79
2022-08-17T17:54:24.198Z,27.75
2022-08-17T17:59:34.892Z,27.69
2022-08-17T18:04:48.964Z,27.59
2022-08-17T18:10:04.245Z,27.51
2022-08-17T18:15:35.689Z,27.43
2022-08-17T18:20:46.513Z,27.35
2022-08-17T18:25:58.835Z,27.27
2022-08-17T18:31:07.727Z,27.18
2022-08-17T18:36:11.703Z,27.13
2022-08-17T18:41:30.583Z,27.05
2022-08-17T18:46:37.835Z,26.98
2022-08-17T18:51:43.261Z,26.92
2022-08-17T18:56:55.374Z,26.85
2022-08-17T19:02:07.585Z,26.77
2022-08-17T19:07:16.852Z,27.75
2022-08-17T19:12:39.486Z,29.45
2022-08-17T19:17:55.525Z,28.52
2022-08-17T19:23:22.904Z,27.94
2022-08-17T19:28:36.933Z,27.60
2022-08-17T19:33:40.067Z,27.33
2022-08-17T19:38:51.578Z,27.09
2022-08-17T19:44:14.814Z,26.85
2022-08-17T19:49:46.763Z,27.65
2022-08-17T19:55:01.109Z,29.21
2022-08-17T20:00:13.761Z,28.19
2022-08-17T20:06:00.880Z,27.56
2022-08-17T20:11:02.976Z,27.12
2022-08-17T20:16:07.235Z,26.77
2022-08-17T20:21:37.315Z,27.42
2022-08-17T20:26:58.737Z,28.95
2022-08-17T20:32:02.481Z,27.86
2022-08-17T20:37:14.466Z,27.23
2022-08-17T20:42:19.946Z,26.79
2022-08-17T20:47:30.857Z,26.43
2022-08-17T20:52:53.366Z,27.17
2022-08-17T20:57:56.833Z,28.70
2022-08-17T21:03:23.823Z,27.65
2022-08-17T21:08:29.743Z,26.93
2022-08-17T21:13:49.215Z,26.49
2022-08-17T21:19:08.716Z,26.09
2022-08-17T21:24:20.516Z,26.92
2022-08-17T21:29:31.105Z,28.44
2022-08-17T21:34:44.349Z,27.34
2022-08-17T21:39:51.913Z,26.62
2022-08-17T21:45:00.655Z,26.15
2022-08-17T21:50:24.500Z,25.75
2022-08-17T21:55:30.929Z,26.66
2022-08-17T22:00:34.044Z,28.92
2022-08-17T22:05:39.601Z,28.84
2022-08-17T22:10:45.445Z,27.58
2022-08-17T22:16:27.855Z,26.83
2022-08-17T22:21:32.099Z,26.23
2022-08-17T22:27:00.328Z,25.77
2022-08-17T22:32:03.730Z,26.64
2022-08-17T22:37:27.959Z,28.14
2022-08-17T22:42:31.366Z,26.94
2022-08-17T22:47:39.597Z,26.19
2022-08-17T22:53:13.531Z,25.67
2022-08-17T22:58:39.018Z,26.58
2022-08-17T23:03:55.681Z,28.00
2022-08-17T23:08:58.874Z,26.77
2022-08-17T23:14:02.444Z,26.02
2022-08-17T23:19:05.392Z,25.50
2022-08-17T23:24:09.096Z,26.16
2022-08-17T23:29:12.122Z,28.41
2022-08-17T23:34:18.425Z,28.34
2022-08-17T23:39:27.749Z,27.02
2022-08-17T23:44:31.415Z,26.23
2022-08-17T23:49:36.366Z,25.67
2022-08-17T23:54:44.273Z,26.28
2022-08-17T23:59:47.378Z,28.47
